createdAt,value
2023-03-03T00:00:10.783Z,100.00
2023-03-03T00:02:58.212Z,100.00
2023-03-03T00:05:47.621Z,100.00
2023-03-03T00:08:42.131Z,100.00
2023-03-03T00:11:20.093Z,100.00
2023-03-03T00:14:07.345Z,100.00
2023-03-03T00:16:53.017Z,100.00
2023-03-03T00:19:45.027Z,100.00
2023-03-03T00:22:40.304Z,100.00
2023-03-03T00:25:52.883Z,100.00
2023-03-03T00:29:07.542Z,100.00
2023-03-03T00:31:52.231Z,100.00
2023-03-03T00:34:41.865Z,100.00
2023-03-03T00:38:01.902Z,100.00
2023-03-03T00:40:54.257Z,100.00
2023-03-03T00:43:40.812Z,100.00
2023-03-03T00:46:33.350Z,100.00
2023-03-03T00:49:31.939Z,100.00
2023-03-03T00:52:33.813Z,100.00
2023-03-03T00:55:19.691Z,100.00
2023-03-03T00:58:01.881Z,100.00
2023-03-03T01:00:49.857Z,100.00
2023-03-03T01:03:46.074Z,100.00
2023-03-03T01:06:27.086Z,100.00
2023-03-03T01:09:17.121Z,100.00
2023-03-03T01:11:59.344Z,100.00
2023-03-03T01:14:55.884Z,100.00
2023-03-03T01:17:41.095Z,100.00
2023-03-03T01:20:24.990Z,100.00
2023-03-03T01:23:11.277Z,100.00
2023-03-03T01:26:05.831Z,100.00
2023-03-03T01:28:52.416Z,100.00
2023-03-03T01:31:36.166Z,100.00
2023-03-03T01:34:23.516Z,100.00
2023-03-03T01:37:15.250Z,100.00
2023-03-03T01:40:02.324Z,100.00
2023-03-03T01:42:57.154Z,100.00
2023-03-03T01:45:59.130Z,100.00
2023-03-03T01:48:53.785Z,100.00
2023-03-03T01:51:51.875Z,100.00
2023-03-03T01:54:47.214Z,100.00
2023-03-03T01:57:33.737Z,100.00
2023-03-03T02:00:20.056Z,100.00
2023-03-03T02:02:58.777Z,100.00
2023-03-03T02:05:36.498Z,100.00
2023-03-03T02:08:22.222Z,100.00
2023-03-03T02:11:00.902Z,100.00
2023-03-03T02:13:36.117Z,100.00
2023-03-03T02:16:24.559Z,100.00
2023-03-03T02:19:16.612Z,100.00
2023-03-03T02:22:02.697Z,100.00
2023-03-03T02:24:47.974Z,100.00
2023-03-03T02:27:38.402Z,100.00
2023-03-03T02:30:22.286Z,100.00
2023-03-03T02:33:08.510Z,100.00
2023-03-03T02:35:57.008Z,100.00
2023-03-03T02:38:49.801Z,100.00
2023-03-03T02:41:51.375Z,100.00
2023-03-03T02:44:33.263Z,100.00
2023-03-03T02:47:11.220Z,100.00
2023-03-03T02:49:51.764Z,100.00
2023-03-03T02:52:35.840Z,100.00
2023-03-03T02:55:16.311Z,100.00
2023-03-03T02:58:00.263Z,100.00
2023-03-03T03:00:38.000Z,100.00
2023-03-03T03:03:16.205Z,100.00
2023-03-03T03:06:03.739Z,100.00
2023-03-03T03:08:55.114Z,100.00
2023-03-03T03:11:36.473Z,100.00
2023-03-03T03:14:18.898Z,100.00
2023-03-03T03:16:58.201Z,100.00
2023-03-03T03:19:43.768Z,100.00
2023-03-03T03:22:19.703Z,100.00
2023-03-03T03:25:01.150Z,100.00
2023-03-03T03:27:45.148Z,100.00
2023-03-03T03:30:34.577Z,100.00
2023-03-03T03:33:12.771Z,100.00
2023-03-03T03:36:04.417Z,100.00
2023-03-03T03:38:52.473Z,100.00
2023-03-03T03:41:33.091Z,100.00
2023-03-03T03:44:11.381Z,100.00
2023-03-03T03:47:10.450Z,100.00
2023-03-03T03:50:05.427Z,100.00
2023-03-03T03:52:44.000Z,100.00
2023-03-03T03:55:30.038Z,100.00
2023-03-03T03:58:07.853Z,100.00
2023-03-03T04:00:49.171Z,100.00
2023-03-03T04:03:36.521Z,100.00
2023-03-03T04:06:29.251Z,100.00
2023-03-03T04:09:10.510Z,100.00
2023-03-03T04:12:00.727Z,100.00
2023-03-03T04:14:49.657Z,100.00
2023-03-03T04:17:31.175Z,100.00
2023-03-03T04:20:13.628Z,100.00
2023-03-03T04:22:57.936Z,100.00
2023-03-03T04:25:42.601Z,100.00
2023-03-03T04:28:30.055Z,100.00
2023-03-03T04:31:19.821Z,100.00
2023-03-03T04:34:14.981Z,100.00
2023-03-03T04:36:51.430Z,100.00
2023-03-03T04:39:40.851Z,100.00
2023-03-03T04:42:24.682Z,100.00
2023-03-03T04:45:09.601Z,100.00
2023-03-03T04:48:01.440Z,100.00
2023-03-03T04:50:43.894Z,100.00
2023-03-03T04:53:40.337Z,100.00
2023-03-03T04:56:26.942Z,100.00
2023-03-03T04:59:10.526Z,100.00
2023-03-03T05:01:53.404Z,100.00
2023-03-03T05:04:31.611Z,100.00
2023-03-03T05:07:26.852Z,100.00
2023-03-03T05:10:21.539Z,100.00
2023-03-03T05:13:06.458Z,100.00
2023-03-03T05:15:50.599Z,100.00
2023-03-03T05:18:35.531Z,100.00
2023-03-03T05:21:14.222Z,100.00
2023-03-03T05:24:13.820Z,100.00
2023-03-03T05:26:52.330Z,100.00
2023-03-03T05:29:31.342Z,100.00
2023-03-03T05:32:20.498Z,100.00
2023-03-03T05:35:04.510Z,100.00
2023-03-03T05:37:59.016Z,100.00
2023-03-03T05:40:43.926Z,100.00
2023-03-03T05:43:33.330Z,100.00
2023-03-03T05:46:14.559Z,100.00
2023-03-03T05:48:58.399Z,100.00
2023-03-03T05:51:48.022Z,100.00
2023-03-03T05:54:48.808Z,100.00
2023-03-03T05:57:29.565Z,100.00
2023-03-03T06:00:19.708Z,100.00
2023-03-03T06:03:06.167Z,100.00
2023-03-03T06:05:49.412Z,100.00
2023-03-03T06:08:32.977Z,100.00
2023-03-03T06:11:16.787Z,100.00
2023-03-03T06:14:10.786Z,100.00
2023-03-03T06:16:56.474Z,100.00
2023-03-03T06:19:48.553Z,100.00
2023-03-03T06:22:30.150Z,100.00
2023-03-03T06:25:13.598Z,100.00
2023-03-03T06:27:55.050Z,100.00
2023-03-03T06:30:42.409Z,100.00
2023-03-03T06:33:17.301Z,100.00
2023-03-03T06:35:58.874Z,100.00
2023-03-03T06:38:34.032Z,100.00
2023-03-03T06:41:24.724Z,100.00
2023-03-03T06:44:02.911Z,100.00
2023-03-03T06:46:48.638Z,100.00
2023-03-03T06:49:29.912Z,100.00
2023-03-03T06:52:17.655Z,100.00
2023-03-03T06:54:56.782Z,100.00
2023-03-03T06:57:49.085Z,100.00
2023-03-03T07:00:35.126Z,100.00
2023-03-03T07:03:29.551Z,100.00
2023-03-03T07:06:29.560Z,100.00
2023-03-03T07:09:11.964Z,100.00
2023-03-03T07:11:50.124Z,100.00
2023-03-03T07:14:34.488Z,100.00
2023-03-03T07:17:24.130Z,100.00
2023-03-03T07:20:21.116Z,100.00
2023-03-03T07:23:22.730Z,100.00
2023-03-03T07:26:33.470Z,100.00
2023-03-03T07:29:27.729Z,100.00
2023-03-03T07:32:20.180Z,100.00
2023-03-03T07:35:02.594Z,100.00
2023-03-03T07:37:54.967Z,100.00
2023-03-03T07:40:54.951Z,100.00
2023-03-03T07:43:40.132Z,100.00
2023-03-03T07:46:41.052Z,100.00
2023-03-03T07:49:41.519Z,100.00
2023-03-03T07:52:34.158Z,100.00
2023-03-03T07:55:32.133Z,100.00
2023-03-03T07:58:49.108Z,100.00
2023-03-03T08:01:48.455Z,100.00
2023-03-03T08:04:47.439Z,100.00
2023-03-03T08:07:23.359Z,100.00
2023-03-03T08:10:48.213Z,100.00
2023-03-03T08:13:35.189Z,100.00
2023-03-03T08:17:04.692Z,100.00
2023-03-03T08:19:50.111Z,100.00
2023-03-03T08:22:46.690Z,100.00
2023-03-03T08:25:30.526Z,100.00
2023-03-03T08:28:23.110Z,100.00
2023-03-03T08:31:16.751Z,100.00
2023-03-03T08:34:11.561Z,100.00
2023-03-03T08:37:00.208Z,100.00
2023-03-03T08:39:43.758Z,100.00
2023-03-03T08:42:29.075Z,100.00
2023-03-03T08:45:24.920Z,100.00
2023-03-03T08:48:14.182Z,100.00
2023-03-03T08:50:49.640Z,100.00
2023-03-03T08:53:33.732Z,100.00
2023-03-03T08:56:17.574Z,100.00
2023-03-03T08:59:03.000Z,100.00
2023-03-03T09:01:36.154Z,100.00
2023-03-03T09:04:27.755Z,100.00
2023-03-03T09:07:17.469Z,100.00
2023-03-03T09:10:08.086Z,100.00
2023-03-03T09:12:51.890Z,100.00
2023-03-03T09:15:42.103Z,100.00
2023-03-03T09:18:38.089Z,100.00
2023-03-03T09:21:37.101Z,98.14
2023-03-03T09:24:26.101Z,96.11
2023-03-03T09:27:08.804Z,97.00
2023-03-03T09:29:56.116Z,94.65
2023-03-03T09:32:55.542Z,92.68
2023-03-03T09:35:45.650Z,91.54
2023-03-03T09:38:31.718Z,89.13
2023-03-03T09:41:42.064Z,88.60
2023-03-03T09:44:42.252Z,86.91
2023-03-03T09:47:52.575Z,85.97
2023-03-03T09:51:16.093Z,86.21
2023-03-03T09:53:58.507Z,85.85
2023-03-03T09:57:02.341Z,83.23
2023-03-03T09:59:53.780Z,83.62
2023-03-03T10:03:10.549Z,81.65
2023-03-03T10:06:10.316Z,81.84
2023-03-03T10:09:11.229Z,80.89
2023-03-03T10:12:19.817Z,81.48
2023-03-03T10:15:16.074Z,79.08
2023-03-03T10:18:18.932Z,78.11
2023-03-03T10:21:20.215Z,77.04
2023-03-03T10:24:09.103Z,77.14
2023-03-03T10:27:35.128Z,77.91
2023-03-03T10:30:54.566Z,73.99
2023-03-03T10:34:19.727Z,69.20
2023-03-03T10:37:10.540Z,69.70
2023-03-03T10:40:17.686Z,68.58
2023-03-03T10:43:09.111Z,68.64
2023-03-03T10:46:15.171Z,68.89
2023-03-03T10:49:16.946Z,65.74
2023-03-03T10:52:32.073Z,66.47
2023-03-03T10:55:28.264Z,66.48
2023-03-03T10:58:16.618Z,66.43
2023-03-03T11:01:05.963Z,65.91
2023-03-03T11:04:25.109Z,65.15
2023-03-03T11:07:15.004Z,66.03
2023-03-03T11:10:20.379Z,67.52
2023-03-03T11:13:19.089Z,69.16
2023-03-03T11:16:18.164Z,67.89
2023-03-03T11:19:08.238Z,67.60
2023-03-03T11:22:10.789Z,70.09
2023-03-03T11:25:20.849Z,68.46
2023-03-03T11:28:33.623Z,66.53
2023-03-03T11:31:38.793Z,67.33
2023-03-03T11:34:43.036Z,67.17
2023-03-03T11:38:02.850Z,66.91
2023-03-03T11:41:23.099Z,67.51
2023-03-03T11:44:31.919Z,64.57
2023-03-03T11:47:30.976Z,66.47
2023-03-03T11:50:42.006Z,65.07
2023-03-03T11:53:38.936Z,66.39
2023-03-03T11:56:58.165Z,66.90
2023-03-03T12:00:00.452Z,67.32
2023-03-03T12:02:47.710Z,65.64
2023-03-03T12:05:43.295Z,63.10
2023-03-03T12:08:51.947Z,63.12
2023-03-03T12:11:46.530Z,62.12
2023-03-03T12:15:08.749Z,62.91
2023-03-03T12:18:09.815Z,60.36
2023-03-03T12:21:29.381Z,59.34
2023-03-03T12:24:56.174Z,60.55
2023-03-03T12:27:51.474Z,61.31
2023-03-03T12:31:00.100Z,58.60
2023-03-03T12:33:57.135Z,58.70
2023-03-03T12:37:00.967Z,57.57
2023-03-03T12:40:04.089Z,56.52
2023-03-03T12:43:02.160Z,56.03
2023-03-03T12:46:09.348Z,52.37
2023-03-03T12:48:57.218Z,53.03
2023-03-03T12:51:55.402Z,52.38
2023-03-03T12:55:07.038Z,52.22
2023-03-03T12:58:11.726Z,52.50
2023-03-03T13:01:02.153Z,54.57
2023-03-03T13:04:07.857Z,51.67
2023-03-03T13:07:03.187Z,50.97
2023-03-03T13:09:58.396Z,51.48
2023-03-03T13:13:07.147Z,51.38
2023-03-03T13:16:17.333Z,52.34
2023-03-03T13:19:10.015Z,55.89
2023-03-03T13:21:58.508Z,55.93
2023-03-03T13:25:01.137Z,54.24
2023-03-03T13:28:01.036Z,54.82
2023-03-03T13:30:46.534Z,54.16
2023-03-03T13:33:31.924Z,53.47
2023-03-03T13:36:52.482Z,56.55
2023-03-03T13:39:43.335Z,55.34
2023-03-03T13:42:54.915Z,54.88
2023-03-03T13:46:05.695Z,55.17
2023-03-03T13:49:10.320Z,55.85
2023-03-03T13:52:20.117Z,55.79
2023-03-03T13:55:16.177Z,55.28
2023-03-03T13:58:26.060Z,55.45
2023-03-03T14:01:54.551Z,55.12
2023-03-03T14:04:53.124Z,54.90
2023-03-03T14:07:45.783Z,56.59
2023-03-03T14:10:48.594Z,56.20
2023-03-03T14:13:48.065Z,54.52
2023-03-03T14:16:55.095Z,54.95
2023-03-03T14:19:49.080Z,55.24
2023-03-03T14:22:56.472Z,55.23
2023-03-03T14:26:08.709Z,56.76
2023-03-03T14:28:56.963Z,57.12
2023-03-03T14:31:43.597Z,55.57
2023-03-03T14:34:41.902Z,55.00
2023-03-03T14:37:46.332Z,52.74
2023-03-03T14:40:36.483Z,52.33
2023-03-03T14:43:26.607Z,52.03
2023-03-03T14:46:34.455Z,52.22
2023-03-03T14:49:39.119Z,52.54
2023-03-03T14:52:42.983Z,53.31
2023-03-03T14:55:34.118Z,53.01
2023-03-03T14:58:29.989Z,54.13
2023-03-03T15:01:41.626Z,54.05
2023-03-03T15:04:40.121Z,53.83
2023-03-03T15:07:36.236Z,53.70
2023-03-03T15:10:38.235Z,54.29
2023-03-03T15:13:42.664Z,53.84
2023-03-03T15:16:41.087Z,54.29
2023-03-03T15:19:45.228Z,54.49
2023-03-03T15:22:46.091Z,54.84
2023-03-03T15:26:09.700Z,54.63
2023-03-03T15:29:02.212Z,54.71
2023-03-03T15:31:53.588Z,54.46
2023-03-03T15:35:13.026Z,54.56
2023-03-03T15:38:51.940Z,53.82
2023-03-03T15:41:53.081Z,53.01
2023-03-03T15:44:55.883Z,53.42
2023-03-03T15:48:22.063Z,55.26
2023-03-03T15:51:25.049Z,54.37
2023-03-03T15:54:45.281Z,54.21
2023-03-03T15:57:44.430Z,54.53
2023-03-03T16:00:49.835Z,54.41
2023-03-03T16:03:40.247Z,54.45
2023-03-03T16:06:50.228Z,53.64
2023-03-03T16:09:57.054Z,55.13
2023-03-03T16:12:46.833Z,55.84
2023-03-03T16:15:41.809Z,56.89
2023-03-03T16:22:21.075Z,58.39
2023-03-03T16:25:09.094Z,58.99
2023-03-03T16:28:19.301Z,59.56
2023-03-03T16:31:36.597Z,60.53
2023-03-03T16:34:47.090Z,62.29
2023-03-03T16:37:50.859Z,62.86
2023-03-03T16:40:39.110Z,64.00
2023-03-03T16:44:00.720Z,66.47
2023-03-03T16:46:50.608Z,68.22
2023-03-03T16:49:49.942Z,70.68
2023-03-03T16:52:40.884Z,73.02
2023-03-03T16:55:33.252Z,73.15
2023-03-03T16:58:44.147Z,74.47
2023-03-03T17:01:33.794Z,74.34
2023-03-03T17:04:34.817Z,74.95
2023-03-03T17:07:41.096Z,79.30
2023-03-03T17:11:10.112Z,80.59
2023-03-03T17:14:03.258Z,79.90
2023-03-03T17:16:57.352Z,80.49
2023-03-03T17:19:58.075Z,80.92
2023-03-03T17:23:04.063Z,81.78
2023-03-03T17:26:09.548Z,82.86
2023-03-03T17:29:20.086Z,82.61
2023-03-03T17:32:24.825Z,84.10
2023-03-03T17:35:26.402Z,86.40
2023-03-03T17:38:17.759Z,85.96
2023-03-03T17:41:08.394Z,87.11
2023-03-03T17:44:20.058Z,86.52
2023-03-03T17:47:18.005Z,88.26
2023-03-03T17:50:33.959Z,87.64
2023-03-03T17:53:42.110Z,89.48
2023-03-03T17:57:12.102Z,91.55
2023-03-03T18:00:06.840Z,93.47
2023-03-03T18:03:08.215Z,92.67
2023-03-03T18:06:18.217Z,94.07
2023-03-03T18:09:23.006Z,93.19
2023-03-03T18:12:46.540Z,94.01
2023-03-03T18:16:05.421Z,93.87
2023-03-03T18:19:16.102Z,94.90
2023-03-03T18:22:06.387Z,96.37
2023-03-03T18:25:04.170Z,96.88
2023-03-03T18:27:49.143Z,97.42
2023-03-03T18:30:33.569Z,97.56
2023-03-03T18:33:23.060Z,98.14
2023-03-03T18:36:37.110Z,98.69
2023-03-03T18:39:41.180Z,98.48
2023-03-03T18:42:41.965Z,97.93
2023-03-03T18:45:28.090Z,97.40
2023-03-03T18:48:17.197Z,97.56
2023-03-03T18:50:56.319Z,98.21
2023-03-03T18:54:17.693Z,98.39
2023-03-03T18:57:30.903Z,100.00
2023-03-03T19:00:28.716Z,100.00
2023-03-03T19:03:39.749Z,100.00
2023-03-03T19:06:39.072Z,100.00
2023-03-03T19:09:45.755Z,100.00
2023-03-03T19:12:51.682Z,100.00
2023-03-03T19:15:44.226Z,100.00
2023-03-03T19:18:32.393Z,100.00
2023-03-03T19:21:40.024Z,100.00
2023-03-03T19:24:41.033Z,100.00
2023-03-03T19:27:54.036Z,100.00
2023-03-03T19:30:56.528Z,100.00
2023-03-03T19:34:14.462Z,100.00
2023-03-03T19:37:15.250Z,100.00
2023-03-03T19:40:19.119Z,100.00
2023-03-03T19:43:19.412Z,100.00
2023-03-03T19:46:26.460Z,100.00
2023-03-03T19:49:27.459Z,100.00
2023-03-03T19:52:37.050Z,100.00
2023-03-03T19:55:36.190Z,100.00
2023-03-03T19:58:27.111Z,100.00
2023-03-03T20:01:24.501Z,100.00
2023-03-03T20:04:22.254Z,100.00
2023-03-03T20:11:21.980Z,100.00
2023-03-03T20:14:37.701Z,100.00
2023-03-03T20:17:36.034Z,100.00
2023-03-03T20:20:43.429Z,100.00
2023-03-03T20:23:38.076Z,100.00
2023-03-03T20:26:36.807Z,100.00
2023-03-03T20:29:44.952Z,100.00
2023-03-03T20:32:57.004Z,100.00
2023-03-03T20:36:19.250Z,100.00
2023-03-03T20:39:24.026Z,100.00
2023-03-03T20:42:52.544Z,100.00
2023-03-03T20:46:11.131Z,100.00
2023-03-03T20:49:21.086Z,100.00
2023-03-03T20:52:17.386Z,100.00
2023-03-03T20:55:16.038Z,100.00
2023-03-03T20:58:32.233Z,100.00
2023-03-03T21:01:25.657Z,100.00
2023-03-03T21:04:30.443Z,100.00
2023-03-03T21:07:28.249Z,100.00
2023-03-03T21:10:29.018Z,100.00
2023-03-03T21:13:47.042Z,100.00
2023-03-03T21:16:33.491Z,100.00
2023-03-03T21:22:25.540Z,100.00
2023-03-03T21:25:12.044Z,100.00
2023-03-03T21:28:12.802Z,100.00
2023-03-03T21:31:16.896Z,100.00
2023-03-03T21:34:22.305Z,100.00
2023-03-03T21:37:07.074Z,100.00
2023-03-03T21:40:20.694Z,100.00
2023-03-03T21:43:01.270Z,100.00
2023-03-03T21:45:49.437Z,100.00
2023-03-03T21:48:32.458Z,100.00
2023-03-03T21:51:17.318Z,100.00
2023-03-03T21:54:07.149Z,100.00
2023-03-03T21:57:07.672Z,100.00
2023-03-03T21:59:57.059Z,100.00
2023-03-03T22:02:46.056Z,100.00
2023-03-03T22:05:41.599Z,100.00
2023-03-03T22:08:33.154Z,100.00
2023-03-03T22:11:23.575Z,100.00
2023-03-03T22:14:08.384Z,100.00
2023-03-03T22:17:07.026Z,100.00
2023-03-03T22:19:48.392Z,100.00
2023-03-03T22:22:46.368Z,100.00
2023-03-03T22:25:31.657Z,100.00
2023-03-03T22:28:23.509Z,100.00
2023-03-03T22:31:23.168Z,100.00
2023-03-03T22:34:10.299Z,100.00
2023-03-03T22:36:56.753Z,100.00
2023-03-03T22:39:49.167Z,100.00
2023-03-03T22:42:35.273Z,100.00
2023-03-03T22:45:24.484Z,100.00
2023-03-03T22:48:12.988Z,100.00
2023-03-03T22:51:03.088Z,100.00
2023-03-03T22:53:53.496Z,100.00
2023-03-03T22:56:49.308Z,100.00
2023-03-03T22:59:37.792Z,100.00
2023-03-03T23:02:19.036Z,100.00
2023-03-03T23:05:10.844Z,100.00
2023-03-03T23:07:59.874Z,100.00
2023-03-03T23:10:49.024Z,100.00
2023-03-03T23:13:30.141Z,100.00
2023-03-03T23:16:10.747Z,100.00
2023-03-03T23:18:56.952Z,100.00
2023-03-03T23:21:47.269Z,100.00
2023-03-03T23:24:33.143Z,100.00
2023-03-03T23:27:22.970Z,100.00
2023-03-03T23:30:10.979Z,100.00
2023-03-03T23:33:01.610Z,100.00
2023-03-03T23:35:42.491Z,100.00
2023-03-03T23:38:24.828Z,100.00
2023-03-03T23:41:22.747Z,100.00
2023-03-03T23:44:15.043Z,100.00
2023-03-03T23:47:04.042Z,100.00
2023-03-03T23:49:50.716Z,100.00
2023-03-03T23:52:40.529Z,100.00
2023-03-03T23:55:31.645Z,100.00
2023-03-03T23:58:15.272Z,100.00
